Alexandria, South Dakota
Current Conditions -  °F | °C
As of 6:53 AM on Friday 19 Dec 2014 (Local Time) from KMHE Reporting Station
Haze Haze  
Wind Chill: 18°   Ceiling: 700
Heat Index: 29°   Visibility: 5mi
Dew Point: 26°   Wind: 14mph
Humidity: 89%   Direction: 180°S
Pressure: 30.11"   Gusts: NA
Location:  43.65°N, 97.78°W
Report Text: KMHE 191253Z AUTO 18012KT 5SM BR OVC007 M02/M03 A3011 RMK AO2 SLP215 T10171033 $
Loading
Personal Weather Stations






























Interactive Weather Map New forecast layout! Learn more

10-Day Weather Forecast

Advertisements
Track Severe Weather on mobile